Lindsay, Nebraska
Current Conditions -  °F | °C
As of 9:35 PM on Friday 19 Dec 2014 (Local Time) from KBVN Reporting Station
Haze Haze  
Wind Chill: 28°   Ceiling: 700
Heat Index: 32°   Visibility: 5mi
Dew Point: 30°   Wind: 5mph
Humidity: 90%   Direction: 210°SSW
Pressure: 30.05"   Gusts: NA
Location:  41.7°N, 97.69°W
Report Text: KBVN 200335Z AUTO 21004KT 5SM BR OVC007 00/M01 A3005 RMK AO2 T00011013
Loading
Personal Weather Stations






























Interactive Weather Map New forecast layout! Learn more

10-Day Weather Forecast

Advertisements
Track Severe Weather on mobile